sensor_id;sensor_type;location;lat;lon;timestamp;P1;durP1;ratioP1;P2;durP2;ratioP2
22929;SDS011;11630;42.660;23.292;2023-12-20T00:01:25;62.43;;;39.30;;
22929;SDS011;11630;42.660;23.292;2023-12-20T00:03:56;63.73;;;38.77;;
22929;SDS011;11630;42.660;23.292;2023-12-20T00:06:27;56.90;;;36.20;;
22929;SDS011;11630;42.660;23.292;2023-12-20T00:08:58;62.23;;;38.43;;
22929;SDS011;11630;42.660;23.292;2023-12-20T00:11:29;59.87;;;37.40;;
22929;SDS011;11630;42.660;23.292;2023-12-20T00:14:00;57.40;;;38.10;;
22929;SDS011;11630;42.660;23.292;2023-12-20T00:16:31;59.37;;;37.53;;
22929;SDS011;11630;42.660;23.292;2023-12-20T00:19:02;63.27;;;37.23;;
22929;SDS011;11630;42.660;23.292;2023-12-20T00:21:33;62.70;;;38.97;;
22929;SDS011;11630;42.660;23.292;2023-12-20T00:24:04;54.07;;;35.77;;
22929;SDS011;11630;42.660;23.292;2023-12-20T00:26:35;64.10;;;37.83;;
22929;SDS011;11630;42.660;23.292;2023-12-20T00:29:05;64.63;;;39.30;;
22929;SDS011;11630;42.660;23.292;2023-12-20T00:31:36;57.63;;;36.23;;
22929;SDS011;11630;42.660;23.292;2023-12-20T00:34:07;58.73;;;35.47;;
22929;SDS011;11630;42.660;23.292;2023-12-20T00:36:38;54.13;;;35.10;;
22929;SDS011;11630;42.660;23.292;2023-12-20T00:39:09;59.00;;;35.07;;
22929;SDS011;11630;42.660;23.292;2023-12-20T00:41:40;55.67;;;34.67;;
22929;SDS011;11630;42.660;23.292;2023-12-20T00:44:10;55.53;;;34.83;;
22929;SDS011;11630;42.660;23.292;2023-12-20T00:46:41;50.63;;;32.27;;
22929;SDS011;11630;42.660;23.292;2023-12-20T00:49:12;53.37;;;34.73;;
22929;SDS011;11630;42.660;23.292;2023-12-20T00:51:43;55.53;;;35.47;;
22929;SDS011;11630;42.660;23.292;2023-12-20T00:54:14;59.70;;;35.33;;
22929;SDS011;11630;42.660;23.292;2023-12-20T00:56:45;61.10;;;34.87;;
22929;SDS011;11630;42.660;23.292;2023-12-20T00:59:16;55.57;;;33.53;;
22929;SDS011;11630;42.660;23.292;2023-12-20T01:01:48;50.33;;;29.90;;
22929;SDS011;11630;42.660;23.292;2023-12-20T01:04:19;52.67;;;30.77;;
22929;SDS011;11630;42.660;23.292;2023-12-20T01:06:50;44.17;;;27.70;;
22929;SDS011;11630;42.660;23.292;2023-12-20T01:09:21;52.57;;;31.50;;
22929;SDS011;11630;42.660;23.292;2023-12-20T01:11:52;49.70;;;32.17;;
22929;SDS011;11630;42.660;23.292;2023-12-20T01:14:22;52.70;;;30.67;;
22929;SDS011;11630;42.660;23.292;2023-12-20T01:16:53;51.40;;;29.77;;
22929;SDS011;11630;42.660;23.292;2023-12-20T01:19:24;44.93;;;28.73;;
22929;SDS011;11630;42.660;23.292;2023-12-20T01:21:55;53.47;;;32.07;;
22929;SDS011;11630;42.660;23.292;2023-12-20T01:24:24;46.30;;;30.43;;
22929;SDS011;11630;42.660;23.292;2023-12-20T01:26:54;40.67;;;24.93;;
22929;SDS011;11630;42.660;23.292;2023-12-20T01:29:26;41.37;;;25.17;;
22929;SDS011;11630;42.660;23.292;2023-12-20T01:31:57;36.63;;;22.57;;
22929;SDS011;11630;42.660;23.292;2023-12-20T01:34:27;35.23;;;21.97;;
22929;SDS011;11630;42.660;23.292;2023-12-20T01:36:58;38.30;;;20.67;;
22929;SDS011;11630;42.660;23.292;2023-12-20T01:39:29;33.30;;;22.07;;
22929;SDS011;11630;42.660;23.292;2023-12-20T01:41:59;39.77;;;23.60;;
22929;SDS011;11630;42.660;23.292;2023-12-20T01:44:31;34.27;;;20.90;;
22929;SDS011;11630;42.660;23.292;2023-12-20T01:47:01;36.10;;;21.70;;
22929;SDS011;11630;42.660;23.292;2023-12-20T01:49:32;33.40;;;20.23;;
22929;SDS011;11630;42.660;23.292;2023-12-20T01:52:03;38.73;;;21.53;;
22929;SDS011;11630;42.660;23.292;2023-12-20T01:54:35;32.93;;;20.40;;
22929;SDS011;11630;42.660;23.292;2023-12-20T01:57:06;33.47;;;20.73;;
22929;SDS011;11630;42.660;23.292;2023-12-20T01:59:39;30.77;;;18.27;;
22929;SDS011;11630;42.660;23.292;2023-12-20T02:02:09;26.70;;;17.80;;
22929;SDS011;11630;42.660;23.292;2023-12-20T02:04:40;34.93;;;19.27;;
22929;SDS011;11630;42.660;23.292;2023-12-20T02:07:12;32.67;;;17.77;;
22929;SDS011;11630;42.660;23.292;2023-12-20T02:09:43;30.87;;;17.30;;
22929;SDS011;11630;42.660;23.292;2023-12-20T02:12:14;36.47;;;17.93;;
22929;SDS011;11630;42.660;23.292;2023-12-20T02:14:44;33.37;;;19.90;;
22929;SDS011;11630;42.660;23.292;2023-12-20T02:17:16;40.60;;;21.83;;
22929;SDS011;11630;42.660;23.292;2023-12-20T02:19:47;38.47;;;21.70;;
22929;SDS011;11630;42.660;23.292;2023-12-20T02:22:17;37.60;;;22.03;;
22929;SDS011;11630;42.660;23.292;2023-12-20T02:24:48;32.13;;;19.40;;
22929;SDS011;11630;42.660;23.292;2023-12-20T02:27:19;36.37;;;20.77;;
22929;SDS011;11630;42.660;23.292;2023-12-20T02:29:52;36.97;;;22.40;;
22929;SDS011;11630;42.660;23.292;2023-12-20T02:32:24;36.83;;;22.73;;
22929;SDS011;11630;42.660;23.292;2023-12-20T02:34:54;45.90;;;24.50;;
22929;SDS011;11630;42.660;23.292;2023-12-20T02:37:25;47.40;;;24.37;;
22929;SDS011;11630;42.660;23.292;2023-12-20T02:39:56;42.23;;;23.30;;
22929;SDS011;11630;42.660;23.292;2023-12-20T02:42:27;37.47;;;22.73;;
22929;SDS011;11630;42.660;23.292;2023-12-20T02:44:58;37.63;;;23.13;;
22929;SDS011;11630;42.660;23.292;2023-12-20T02:47:29;37.43;;;22.80;;
22929;SDS011;11630;42.660;23.292;2023-12-20T02:50:00;38.23;;;24.40;;
22929;SDS011;11630;42.660;23.292;2023-12-20T02:52:30;41.73;;;26.07;;
22929;SDS011;11630;42.660;23.292;2023-12-20T02:55:01;40.63;;;24.80;;
22929;SDS011;11630;42.660;23.292;2023-12-20T02:57:33;40.37;;;25.10;;
22929;SDS011;11630;42.660;23.292;2023-12-20T03:00:03;43.53;;;24.73;;
22929;SDS011;11630;42.660;23.292;2023-12-20T03:02:35;38.10;;;22.97;;
22929;SDS011;11630;42.660;23.292;2023-12-20T03:05:06;40.93;;;25.63;;
22929;SDS011;11630;42.660;23.292;2023-12-20T03:07:37;38.77;;;22.30;;
22929;SDS011;11630;42.660;23.292;2023-12-20T03:10:08;34.70;;;22.63;;
22929;SDS011;11630;42.660;23.292;2023-12-20T03:12:38;38.33;;;23.60;;
22929;SDS011;11630;42.660;23.292;2023-12-20T03:15:10;40.77;;;24.60;;
22929;SDS011;11630;42.660;23.292;2023-12-20T03:17:41;38.87;;;24.47;;
22929;SDS011;11630;42.660;23.292;2023-12-20T03:20:12;39.97;;;26.80;;
22929;SDS011;11630;42.660;23.292;2023-12-20T03:22:42;43.67;;;27.67;;
22929;SDS011;11630;42.660;23.292;2023-12-20T03:25:14;42.87;;;26.93;;
22929;SDS011;11630;42.660;23.292;2023-12-20T03:27:45;43.77;;;27.37;;
22929;SDS011;11630;42.660;23.292;2023-12-20T03:30:16;38.10;;;26.13;;
22929;SDS011;11630;42.660;23.292;2023-12-20T03:32:46;41.53;;;28.00;;
22929;SDS011;11630;42.660;23.292;2023-12-20T03:35:17;49.23;;;28.20;;
22929;SDS011;11630;42.660;23.292;2023-12-20T03:37:51;43.80;;;26.93;;
22929;SDS011;11630;42.660;23.292;2023-12-20T03:40:22;42.20;;;25.37;;
22929;SDS011;11630;42.660;23.292;2023-12-20T03:42:53;39.70;;;23.07;;
22929;SDS011;11630;42.660;23.292;2023-12-20T03:45:23;42.53;;;24.20;;
22929;SDS011;11630;42.660;23.292;2023-12-20T03:47:54;34.63;;;22.80;;
22929;SDS011;11630;42.660;23.292;2023-12-20T03:50:25;40.23;;;23.97;;
22929;SDS011;11630;42.660;23.292;2023-12-20T03:52:56;30.43;;;21.50;;
22929;SDS011;11630;42.660;23.292;2023-12-20T03:55:27;39.50;;;23.13;;
22929;SDS011;11630;42.660;23.292;2023-12-20T03:57:57;35.33;;;22.77;;
22929;SDS011;11630;42.660;23.292;2023-12-20T04:00:28;33.30;;;21.83;;
22929;SDS011;11630;42.660;23.292;2023-12-20T04:02:59;37.40;;;23.63;;
22929;SDS011;11630;42.660;23.292;2023-12-20T04:05:29;41.07;;;25.17;;
22929;SDS011;11630;42.660;23.292;2023-12-20T04:08:01;37.47;;;24.47;;
22929;SDS011;11630;42.660;23.292;2023-12-20T04:10:31;45.20;;;24.40;;
22929;SDS011;11630;42.660;23.292;2023-12-20T04:13:03;43.77;;;25.13;;
22929;SDS011;11630;42.660;23.292;2023-12-20T04:15:34;46.37;;;26.23;;
22929;SDS011;11630;42.660;23.292;2023-12-20T04:18:05;38.23;;;25.73;;
22929;SDS011;11630;42.660;23.292;2023-12-20T04:20:36;36.47;;;24.50;;
22929;SDS011;11630;42.660;23.292;2023-12-20T04:23:07;38.83;;;25.93;;
22929;SDS011;11630;42.660;23.292;2023-12-20T04:25:38;41.23;;;24.47;;
22929;SDS011;11630;42.660;23.292;2023-12-20T04:28:09;37.37;;;25.47;;
22929;SDS011;11630;42.660;23.292;2023-12-20T04:30:39;33.73;;;24.10;;
22929;SDS011;11630;42.660;23.292;2023-12-20T04:33:10;43.30;;;25.40;;
22929;SDS011;11630;42.660;23.292;2023-12-20T04:35:41;45.40;;;26.70;;
22929;SDS011;11630;42.660;23.292;2023-12-20T04:38:12;41.57;;;28.30;;
22929;SDS011;11630;42.660;23.292;2023-12-20T04:40:43;44.37;;;27.70;;
22929;SDS011;11630;42.660;23.292;2023-12-20T04:43:14;46.53;;;27.67;;
22929;SDS011;11630;42.660;23.292;2023-12-20T04:45:45;46.10;;;26.03;;
22929;SDS011;11630;42.660;23.292;2023-12-20T04:48:15;52.70;;;29.03;;
22929;SDS011;11630;42.660;23.292;2023-12-20T04:50:46;45.77;;;29.37;;
22929;SDS011;11630;42.660;23.292;2023-12-20T04:53:17;53.97;;;31.13;;
22929;SDS011;11630;42.660;23.292;2023-12-20T04:55:48;70.07;;;40.07;;
22929;SDS011;11630;42.660;23.292;2023-12-20T04:58:19;62.93;;;39.73;;
22929;SDS011;11630;42.660;23.292;2023-12-20T05:00:50;52.33;;;35.70;;
22929;SDS011;11630;42.660;23.292;2023-12-20T05:03:21;62.30;;;39.40;;
22929;SDS011;11630;42.660;23.292;2023-12-20T05:05:52;73.63;;;41.83;;
22929;SDS011;11630;42.660;23.292;2023-12-20T05:08:23;63.30;;;41.00;;
22929;SDS011;11630;42.660;23.292;2023-12-20T05:10:54;61.40;;;39.53;;
22929;SDS011;11630;42.660;23.292;2023-12-20T05:13:24;59.73;;;34.87;;
22929;SDS011;11630;42.660;23.292;2023-12-20T05:15:56;62.37;;;40.07;;
22929;SDS011;11630;42.660;23.292;2023-12-20T05:18:26;53.03;;;36.27;;
22929;SDS011;11630;42.660;23.292;2023-12-20T05:20:57;59.67;;;34.27;;
22929;SDS011;11630;42.660;23.292;2023-12-20T05:23:29;51.83;;;34.43;;
22929;SDS011;11630;42.660;23.292;2023-12-20T05:26:00;53.63;;;35.37;;
22929;SDS011;11630;42.660;23.292;2023-12-20T05:28:31;68.53;;;40.07;;
22929;SDS011;11630;42.660;23.292;2023-12-20T05:31:02;75.83;;;44.93;;
22929;SDS011;11630;42.660;23.292;2023-12-20T05:33:32;59.73;;;40.03;;
22929;SDS011;11630;42.660;23.292;2023-12-20T05:36:03;67.07;;;42.03;;
22929;SDS011;11630;42.660;23.292;2023-12-20T05:38:35;66.57;;;38.97;;
22929;SDS011;11630;42.660;23.292;2023-12-20T05:41:06;77.43;;;46.83;;
22929;SDS011;11630;42.660;23.292;2023-12-20T05:43:37;128.97;;;77.23;;
22929;SDS011;11630;42.660;23.292;2023-12-20T05:46:10;112.43;;;67.90;;
22929;SDS011;11630;42.660;23.292;2023-12-20T05:48:39;118.10;;;65.63;;
22929;SDS011;11630;42.660;23.292;2023-12-20T05:51:11;126.80;;;70.87;;
22929;SDS011;11630;42.660;23.292;2023-12-20T05:53:41;117.67;;;67.37;;
22929;SDS011;11630;42.660;23.292;2023-12-20T05:56:12;104.87;;;61.23;;
22929;SDS011;11630;42.660;23.292;2023-12-20T05:58:43;101.60;;;62.47;;
22929;SDS011;11630;42.660;23.292;2023-12-20T06:01:14;110.87;;;60.90;;
22929;SDS011;11630;42.660;23.292;2023-12-20T06:03:48;104.57;;;61.30;;
22929;SDS011;11630;42.660;23.292;2023-12-20T06:06:19;116.33;;;63.83;;
22929;SDS011;11630;42.660;23.292;2023-12-20T06:08:50;101.43;;;58.67;;
22929;SDS011;11630;42.660;23.292;2023-12-20T06:11:21;102.67;;;61.63;;
22929;SDS011;11630;42.660;23.292;2023-12-20T06:13:51;120.33;;;63.30;;
22929;SDS011;11630;42.660;23.292;2023-12-20T06:16:21;123.93;;;66.50;;
22929;SDS011;11630;42.660;23.292;2023-12-20T06:18:51;123.73;;;65.90;;
22929;SDS011;11630;42.660;23.292;2023-12-20T06:21:22;122.27;;;66.20;;
22929;SDS011;11630;42.660;23.292;2023-12-20T06:23:54;130.33;;;68.77;;
22929;SDS011;11630;42.660;23.292;2023-12-20T06:26:25;120.23;;;66.67;;
22929;SDS011;11630;42.660;23.292;2023-12-20T06:28:56;124.00;;;65.73;;
22929;SDS011;11630;42.660;23.292;2023-12-20T06:31:27;122.80;;;64.67;;
22929;SDS011;11630;42.660;23.292;2023-12-20T06:33:57;122.73;;;66.00;;
22929;SDS011;11630;42.660;23.292;2023-12-20T06:36:28;130.83;;;67.93;;
22929;SDS011;11630;42.660;23.292;2023-12-20T06:38:59;124.13;;;67.43;;
22929;SDS011;11630;42.660;23.292;2023-12-20T06:41:29;127.93;;;68.67;;
22929;SDS011;11630;42.660;23.292;2023-12-20T06:44:00;126.87;;;66.30;;
22929;SDS011;11630;42.660;23.292;2023-12-20T06:46:31;126.97;;;67.17;;
22929;SDS011;11630;42.660;23.292;2023-12-20T06:49:02;126.60;;;67.20;;
22929;SDS011;11630;42.660;23.292;2023-12-20T06:51:32;123.57;;;67.00;;
22929;SDS011;11630;42.660;23.292;2023-12-20T06:54:03;125.07;;;66.50;;
22929;SDS011;11630;42.660;23.292;2023-12-20T06:56:34;124.87;;;67.00;;
22929;SDS011;11630;42.660;23.292;2023-12-20T06:59:05;133.60;;;69.37;;
22929;SDS011;11630;42.660;23.292;2023-12-20T07:01:35;125.57;;;67.77;;
22929;SDS011;11630;42.660;23.292;2023-12-20T07:04:06;142.90;;;73.30;;
22929;SDS011;11630;42.660;23.292;2023-12-20T07:06:40;147.23;;;76.97;;
22929;SDS011;11630;42.660;23.292;2023-12-20T07:09:11;152.63;;;79.30;;
22929;SDS011;11630;42.660;23.292;2023-12-20T07:11:42;139.87;;;70.30;;
22929;SDS011;11630;42.660;23.292;2023-12-20T07:14:12;147.50;;;72.53;;
22929;SDS011;11630;42.660;23.292;2023-12-20T07:16:43;121.93;;;65.77;;
22929;SDS011;11630;42.660;23.292;2023-12-20T07:19:14;126.93;;;66.20;;
22929;SDS011;11630;42.660;23.292;2023-12-20T07:21:44;134.87;;;71.93;;
22929;SDS011;11630;42.660;23.292;2023-12-20T07:24:15;136.97;;;70.17;;
22929;SDS011;11630;42.660;23.292;2023-12-20T07:26:46;146.80;;;71.03;;
22929;SDS011;11630;42.660;23.292;2023-12-20T07:29:17;151.50;;;73.37;;
22929;SDS011;11630;42.660;23.292;2023-12-20T07:31:48;138.77;;;70.57;;
22929;SDS011;11630;42.660;23.292;2023-12-20T07:34:18;152.17;;;73.27;;
22929;SDS011;11630;42.660;23.292;2023-12-20T07:36:49;136.70;;;73.57;;
22929;SDS011;11630;42.660;23.292;2023-12-20T07:39:20;135.63;;;73.10;;
22929;SDS011;11630;42.660;23.292;2023-12-20T07:41:51;156.70;;;74.37;;
22929;SDS011;11630;42.660;23.292;2023-12-20T07:44:22;157.70;;;74.23;;
22929;SDS011;11630;42.660;23.292;2023-12-20T07:46:53;151.20;;;76.60;;
22929;SDS011;11630;42.660;23.292;2023-12-20T07:49:24;156.10;;;75.67;;
22929;SDS011;11630;42.660;23.292;2023-12-20T07:51:54;168.33;;;79.37;;
22929;SDS011;11630;42.660;23.292;2023-12-20T07:54:25;161.40;;;76.27;;
22929;SDS011;11630;42.660;23.292;2023-12-20T07:56:55;155.00;;;77.33;;
22929;SDS011;11630;42.660;23.292;2023-12-20T07:59:26;158.33;;;79.80;;
22929;SDS011;11630;42.660;23.292;2023-12-20T08:01:57;165.07;;;79.37;;
22929;SDS011;11630;42.660;23.292;2023-12-20T08:04:27;167.90;;;79.00;;
22929;SDS011;11630;42.660;23.292;2023-12-20T08:06:58;173.03;;;81.90;;
22929;SDS011;11630;42.660;23.292;2023-12-20T08:09:28;167.80;;;81.37;;
22929;SDS011;11630;42.660;23.292;2023-12-20T08:11:59;170.40;;;83.83;;
22929;SDS011;11630;42.660;23.292;2023-12-20T08:14:30;182.57;;;84.07;;
22929;SDS011;11630;42.660;23.292;2023-12-20T08:17:00;179.53;;;77.03;;
22929;SDS011;11630;42.660;23.292;2023-12-20T08:19:30;176.77;;;84.00;;
22929;SDS011;11630;42.660;23.292;2023-12-20T08:22:01;181.57;;;83.63;;
22929;SDS011;11630;42.660;23.292;2023-12-20T08:24:32;162.13;;;79.47;;
22929;SDS011;11630;42.660;23.292;2023-12-20T08:27:03;166.53;;;83.50;;
22929;SDS011;11630;42.660;23.292;2023-12-20T08:29:34;157.97;;;80.30;;
22929;SDS011;11630;42.660;23.292;2023-12-20T08:32:09;148.60;;;79.10;;
22929;SDS011;11630;42.660;23.292;2023-12-20T08:34:39;150.67;;;77.43;;
22929;SDS011;11630;42.660;23.292;2023-12-20T08:37:11;145.93;;;75.10;;
22929;SDS011;11630;42.660;23.292;2023-12-20T08:39:42;121.80;;;70.23;;
22929;SDS011;11630;42.660;23.292;2023-12-20T08:42:12;142.47;;;73.03;;
22929;SDS011;11630;42.660;23.292;2023-12-20T08:44:43;138.57;;;74.87;;
22929;SDS011;11630;42.660;23.292;2023-12-20T08:47:14;128.03;;;73.37;;
22929;SDS011;11630;42.660;23.292;2023-12-20T08:49:44;139.40;;;74.70;;
22929;SDS011;11630;42.660;23.292;2023-12-20T08:52:15;137.10;;;78.13;;
22929;SDS011;11630;42.660;23.292;2023-12-20T08:54:46;144.50;;;78.77;;
22929;SDS011;11630;42.660;23.292;2023-12-20T08:57:18;143.57;;;78.67;;
22929;SDS011;11630;42.660;23.292;2023-12-20T08:59:49;133.17;;;77.57;;
22929;SDS011;11630;42.660;23.292;2023-12-20T09:02:20;141.83;;;77.03;;
22929;SDS011;11630;42.660;23.292;2023-12-20T09:04:50;129.00;;;76.57;;
22929;SDS011;11630;42.660;23.292;2023-12-20T09:07:26;128.10;;;75.33;;
22929;SDS011;11630;42.660;23.292;2023-12-20T09:09:56;136.73;;;77.27;;
22929;SDS011;11630;42.660;23.292;2023-12-20T09:12:28;134.37;;;75.43;;
22929;SDS011;11630;42.660;23.292;2023-12-20T09:14:59;132.87;;;77.07;;
22929;SDS011;11630;42.660;23.292;2023-12-20T09:17:29;145.80;;;82.43;;
22929;SDS011;11630;42.660;23.292;2023-12-20T09:20:00;133.87;;;78.73;;
22929;SDS011;11630;42.660;23.292;2023-12-20T09:22:31;142.70;;;81.07;;
22929;SDS011;11630;42.660;23.292;2023-12-20T09:25:02;151.17;;;78.37;;
22929;SDS011;11630;42.660;23.292;2023-12-20T09:27:33;136.87;;;80.97;;
22929;SDS011;11630;42.660;23.292;2023-12-20T09:30:05;140.77;;;79.70;;
22929;SDS011;11630;42.660;23.292;2023-12-20T09:32:37;143.97;;;79.93;;
22929;SDS011;11630;42.660;23.292;2023-12-20T09:35:08;152.17;;;82.77;;
22929;SDS011;11630;42.660;23.292;2023-12-20T09:37:40;146.13;;;80.93;;
22929;SDS011;11630;42.660;23.292;2023-12-20T09:40:12;151.47;;;84.63;;
22929;SDS011;11630;42.660;23.292;2023-12-20T09:42:46;154.77;;;82.63;;
22929;SDS011;11630;42.660;23.292;2023-12-20T09:45:20;152.37;;;83.27;;
22929;SDS011;11630;42.660;23.292;2023-12-20T09:47:50;145.87;;;82.73;;
22929;SDS011;11630;42.660;23.292;2023-12-20T09:50:21;143.67;;;82.77;;
22929;SDS011;11630;42.660;23.292;2023-12-20T09:52:53;148.10;;;80.70;;
22929;SDS011;11630;42.660;23.292;2023-12-20T09:55:24;140.77;;;83.00;;
22929;SDS011;11630;42.660;23.292;2023-12-20T09:57:56;149.70;;;80.57;;
22929;SDS011;11630;42.660;23.292;2023-12-20T10:00:30;142.00;;;82.43;;
22929;SDS011;11630;42.660;23.292;2023-12-20T10:03:01;152.67;;;81.50;;
22929;SDS011;11630;42.660;23.292;2023-12-20T10:05:32;146.07;;;78.87;;
22929;SDS011;11630;42.660;23.292;2023-12-20T10:08:02;142.40;;;81.73;;
22929;SDS011;11630;42.660;23.292;2023-12-20T10:10:33;141.90;;;76.40;;
22929;SDS011;11630;42.660;23.292;2023-12-20T10:13:08;133.83;;;77.63;;
22929;SDS011;11630;42.660;23.292;2023-12-20T10:15:40;123.20;;;75.77;;
22929;SDS011;11630;42.660;23.292;2023-12-20T10:18:11;130.50;;;77.93;;
22929;SDS011;11630;42.660;23.292;2023-12-20T10:20:41;118.97;;;75.73;;
22929;SDS011;11630;42.660;23.292;2023-12-20T10:23:13;129.40;;;75.87;;
22929;SDS011;11630;42.660;23.292;2023-12-20T10:25:49;125.90;;;75.17;;
22929;SDS011;11630;42.660;23.292;2023-12-20T10:28:16;129.10;;;76.83;;
22929;SDS011;11630;42.660;23.292;2023-12-20T10:30:46;122.27;;;74.10;;
22929;SDS011;11630;42.660;23.292;2023-12-20T10:33:25;117.43;;;73.63;;
22929;SDS011;11630;42.660;23.292;2023-12-20T10:35:58;110.00;;;69.77;;
22929;SDS011;11630;42.660;23.292;2023-12-20T10:38:29;117.07;;;71.00;;
22929;SDS011;11630;42.660;23.292;2023-12-20T10:40:59;121.27;;;74.37;;
22929;SDS011;11630;42.660;23.292;2023-12-20T10:43:36;112.83;;;74.07;;
22929;SDS011;11630;42.660;23.292;2023-12-20T10:46:07;120.50;;;75.27;;
22929;SDS011;11630;42.660;23.292;2023-12-20T10:48:38;115.73;;;71.80;;
22929;SDS011;11630;42.660;23.292;2023-12-20T10:51:09;122.70;;;73.50;;
22929;SDS011;11630;42.660;23.292;2023-12-20T10:53:41;124.57;;;74.43;;
22929;SDS011;11630;42.660;23.292;2023-12-20T10:56:15;120.20;;;70.53;;
22929;SDS011;11630;42.660;23.292;2023-12-20T10:58:46;122.60;;;72.00;;
22929;SDS011;11630;42.660;23.292;2023-12-20T11:01:17;116.43;;;70.97;;
22929;SDS011;11630;42.660;23.292;2023-12-20T11:03:49;117.10;;;73.30;;
22929;SDS011;11630;42.660;23.292;2023-12-20T11:06:27;117.73;;;70.07;;
22929;SDS011;11630;42.660;23.292;2023-12-20T11:09:16;119.50;;;71.23;;
22929;SDS011;11630;42.660;23.292;2023-12-20T11:12:01;121.57;;;69.87;;
22929;SDS011;11630;42.660;23.292;2023-12-20T11:14:47;119.23;;;71.57;;
22929;SDS011;11630;42.660;23.292;2023-12-20T11:17:19;113.33;;;71.00;;
22929;SDS011;11630;42.660;23.292;2023-12-20T11:22:33;112.23;;;65.03;;
22929;SDS011;11630;42.660;23.292;2023-12-20T11:25:04;105.63;;;64.60;;
22929;SDS011;11630;42.660;23.292;2023-12-20T11:27:41;112.57;;;66.13;;
22929;SDS011;11630;42.660;23.292;2023-12-20T11:30:12;108.80;;;66.77;;
22929;SDS011;11630;42.660;23.292;2023-12-20T11:32:43;117.77;;;68.57;;
22929;SDS011;11630;42.660;23.292;2023-12-20T11:35:18;111.90;;;67.10;;
22929;SDS011;11630;42.660;23.292;2023-12-20T11:37:50;120.50;;;68.33;;
22929;SDS011;11630;42.660;23.292;2023-12-20T11:40:22;124.63;;;72.63;;
22929;SDS011;11630;42.660;23.292;2023-12-20T11:42:53;119.30;;;54.90;;
22929;SDS011;11630;42.660;23.292;2023-12-20T11:45:24;127.47;;;68.33;;
22929;SDS011;11630;42.660;23.292;2023-12-20T11:47:54;135.40;;;71.33;;
22929;SDS011;11630;42.660;23.292;2023-12-20T11:50:26;138.77;;;69.70;;
22929;SDS011;11630;42.660;23.292;2023-12-20T11:52:57;132.73;;;69.50;;
22929;SDS011;11630;42.660;23.292;2023-12-20T11:55:27;122.57;;;68.53;;
22929;SDS011;11630;42.660;23.292;2023-12-20T11:57:58;129.47;;;68.53;;
22929;SDS011;11630;42.660;23.292;2023-12-20T12:00:29;138.97;;;68.17;;
22929;SDS011;11630;42.660;23.292;2023-12-20T12:02:59;134.23;;;66.97;;
22929;SDS011;11630;42.660;23.292;2023-12-20T12:05:32;132.90;;;66.93;;
22929;SDS011;11630;42.660;23.292;2023-12-20T12:08:02;127.57;;;66.60;;
22929;SDS011;11630;42.660;23.292;2023-12-20T12:10:33;119.57;;;64.30;;
22929;SDS011;11630;42.660;23.292;2023-12-20T12:13:03;120.60;;;67.07;;
22929;SDS011;11630;42.660;23.292;2023-12-20T12:15:35;124.90;;;67.40;;
22929;SDS011;11630;42.660;23.292;2023-12-20T12:18:06;123.50;;;68.70;;
22929;SDS011;11630;42.660;23.292;2023-12-20T12:20:39;122.53;;;65.13;;
22929;SDS011;11630;42.660;23.292;2023-12-20T12:23:10;110.97;;;64.40;;
22929;SDS011;11630;42.660;23.292;2023-12-20T12:25:40;114.53;;;63.23;;
22929;SDS011;11630;42.660;23.292;2023-12-20T12:28:12;116.77;;;61.07;;
22929;SDS011;11630;42.660;23.292;2023-12-20T12:30:43;102.13;;;62.07;;
22929;SDS011;11630;42.660;23.292;2023-12-20T12:33:27;113.33;;;60.40;;
22929;SDS011;11630;42.660;23.292;2023-12-20T12:35:58;124.27;;;62.50;;
22929;SDS011;11630;42.660;23.292;2023-12-20T12:38:30;113.47;;;62.87;;
22929;SDS011;11630;42.660;23.292;2023-12-20T12:41:01;123.63;;;62.20;;
22929;SDS011;11630;42.660;23.292;2023-12-20T12:43:33;120.43;;;62.33;;
22929;SDS011;11630;42.660;23.292;2023-12-20T12:46:09;122.43;;;61.43;;
22929;SDS011;11630;42.660;23.292;2023-12-20T12:48:36;118.67;;;64.63;;
22929;SDS011;11630;42.660;23.292;2023-12-20T12:51:06;127.33;;;63.13;;
22929;SDS011;11630;42.660;23.292;2023-12-20T12:53:37;110.43;;;61.73;;
22929;SDS011;11630;42.660;23.292;2023-12-20T12:56:08;126.93;;;62.77;;
22929;SDS011;11630;42.660;23.292;2023-12-20T12:58:40;118.47;;;62.07;;
22929;SDS011;11630;42.660;23.292;2023-12-20T13:01:11;124.83;;;63.87;;
22929;SDS011;11630;42.660;23.292;2023-12-20T13:03:41;111.43;;;62.67;;
22929;SDS011;11630;42.660;23.292;2023-12-20T13:06:12;112.47;;;62.97;;
22929;SDS011;11630;42.660;23.292;2023-12-20T13:08:43;123.27;;;64.93;;
22929;SDS011;11630;42.660;23.292;2023-12-20T13:11:14;118.63;;;64.00;;
22929;SDS011;11630;42.660;23.292;2023-12-20T13:13:45;126.50;;;66.47;;
22929;SDS011;11630;42.660;23.292;2023-12-20T13:16:14;129.57;;;66.27;;
22929;SDS011;11630;42.660;23.292;2023-12-20T13:18:45;121.40;;;64.87;;
22929;SDS011;11630;42.660;23.292;2023-12-20T13:21:16;118.53;;;62.90;;
22929;SDS011;11630;42.660;23.292;2023-12-20T13:23:47;134.80;;;68.83;;
22929;SDS011;11630;42.660;23.292;2023-12-20T13:26:18;124.73;;;66.13;;
22929;SDS011;11630;42.660;23.292;2023-12-20T13:28:49;131.40;;;67.90;;
22929;SDS011;11630;42.660;23.292;2023-12-20T13:31:19;118.87;;;64.77;;
22929;SDS011;11630;42.660;23.292;2023-12-20T13:33:51;123.93;;;65.47;;
22929;SDS011;11630;42.660;23.292;2023-12-20T13:36:20;124.87;;;65.30;;
22929;SDS011;11630;42.660;23.292;2023-12-20T13:38:51;122.07;;;66.63;;
22929;SDS011;11630;42.660;23.292;2023-12-20T13:41:22;131.43;;;66.33;;
22929;SDS011;11630;42.660;23.292;2023-12-20T13:43:53;141.20;;;73.20;;
22929;SDS011;11630;42.660;23.292;2023-12-20T13:46:23;120.37;;;67.77;;
22929;SDS011;11630;42.660;23.292;2023-12-20T13:48:54;132.47;;;68.73;;
22929;SDS011;11630;42.660;23.292;2023-12-20T13:51:24;137.83;;;70.90;;
22929;SDS011;11630;42.660;23.292;2023-12-20T13:53:57;135.07;;;70.93;;
22929;SDS011;11630;42.660;23.292;2023-12-20T13:56:28;137.90;;;69.10;;
22929;SDS011;11630;42.660;23.292;2023-12-20T13:58:59;134.53;;;71.83;;
22929;SDS011;11630;42.660;23.292;2023-12-20T14:01:29;138.53;;;70.33;;
22929;SDS011;11630;42.660;23.292;2023-12-20T14:04:00;139.17;;;69.13;;
22929;SDS011;11630;42.660;23.292;2023-12-20T14:06:31;132.70;;;72.63;;
22929;SDS011;11630;42.660;23.292;2023-12-20T14:09:01;133.43;;;70.20;;
22929;SDS011;11630;42.660;23.292;2023-12-20T14:11:31;144.13;;;71.40;;
22929;SDS011;11630;42.660;23.292;2023-12-20T14:14:02;143.33;;;72.73;;
22929;SDS011;11630;42.660;23.292;2023-12-20T14:16:34;132.43;;;69.77;;
22929;SDS011;11630;42.660;23.292;2023-12-20T14:19:05;138.93;;;71.47;;
22929;SDS011;11630;42.660;23.292;2023-12-20T14:21:36;147.47;;;72.60;;
22929;SDS011;11630;42.660;23.292;2023-12-20T14:24:06;153.43;;;73.57;;
22929;SDS011;11630;42.660;23.292;2023-12-20T14:26:37;137.93;;;71.13;;